sensor_id;sensor_type;location;lat;lon;timestamp;P1;durP1;ratioP1;P2;durP2;ratioP2
15929;SDS011;8064;51.142;4.780;2023-05-07T00:00:39;30.30;;;28.47;;
15929;SDS011;8064;51.142;4.780;2023-05-07T00:03:05;30.63;;;28.53;;
15929;SDS011;8064;51.142;4.780;2023-05-07T00:05:31;32.10;;;30.30;;
15929;SDS011;8064;51.142;4.780;2023-05-07T00:07:57;32.70;;;30.77;;
15929;SDS011;8064;51.142;4.780;2023-05-07T00:10:23;30.07;;;28.37;;
15929;SDS011;8064;51.142;4.780;2023-05-07T00:12:50;30.53;;;28.57;;
15929;SDS011;8064;51.142;4.780;2023-05-07T00:15:16;31.67;;;29.60;;
15929;SDS011;8064;51.142;4.780;2023-05-07T00:17:41;33.53;;;31.60;;
15929;SDS011;8064;51.142;4.780;2023-05-07T00:20:07;29.30;;;27.50;;
15929;SDS011;8064;51.142;4.780;2023-05-07T00:22:33;32.90;;;30.93;;
15929;SDS011;8064;51.142;4.780;2023-05-07T00:24:59;33.20;;;31.30;;
15929;SDS011;8064;51.142;4.780;2023-05-07T00:27:25;29.63;;;27.90;;
15929;SDS011;8064;51.142;4.780;2023-05-07T00:29:51;31.37;;;29.63;;
15929;SDS011;8064;51.142;4.780;2023-05-07T00:32:17;32.60;;;30.60;;
15929;SDS011;8064;51.142;4.780;2023-05-07T00:34:43;31.17;;;29.37;;
15929;SDS011;8064;51.142;4.780;2023-05-07T00:37:09;32.67;;;30.67;;
15929;SDS011;8064;51.142;4.780;2023-05-07T00:39:36;32.47;;;30.57;;
15929;SDS011;8064;51.142;4.780;2023-05-07T00:42:02;32.30;;;30.20;;
15929;SDS011;8064;51.142;4.780;2023-05-07T00:44:28;31.27;;;29.27;;
15929;SDS011;8064;51.142;4.780;2023-05-07T00:46:55;31.63;;;29.83;;
15929;SDS011;8064;51.142;4.780;2023-05-07T00:49:22;32.33;;;30.33;;
15929;SDS011;8064;51.142;4.780;2023-05-07T00:51:58;32.13;;;30.00;;
15929;SDS011;8064;51.142;4.780;2023-05-07T00:54:25;33.37;;;31.47;;
15929;SDS011;8064;51.142;4.780;2023-05-07T00:56:51;33.60;;;31.70;;
15929;SDS011;8064;51.142;4.780;2023-05-07T00:59:17;33.50;;;31.53;;
15929;SDS011;8064;51.142;4.780;2023-05-07T01:01:43;33.70;;;31.73;;
15929;SDS011;8064;51.142;4.780;2023-05-07T01:04:10;31.77;;;29.77;;
15929;SDS011;8064;51.142;4.780;2023-05-07T01:06:36;31.27;;;29.37;;
15929;SDS011;8064;51.142;4.780;2023-05-07T01:09:02;30.97;;;29.10;;
15929;SDS011;8064;51.142;4.780;2023-05-07T01:11:29;33.07;;;31.07;;
15929;SDS011;8064;51.142;4.780;2023-05-07T01:13:55;34.10;;;32.13;;
15929;SDS011;8064;51.142;4.780;2023-05-07T01:16:23;31.93;;;29.93;;
15929;SDS011;8064;51.142;4.780;2023-05-07T01:18:49;30.53;;;28.70;;
15929;SDS011;8064;51.142;4.780;2023-05-07T01:21:15;32.93;;;31.00;;
15929;SDS011;8064;51.142;4.780;2023-05-07T01:23:43;32.87;;;31.00;;
15929;SDS011;8064;51.142;4.780;2023-05-07T01:26:10;32.63;;;30.67;;
15929;SDS011;8064;51.142;4.780;2023-05-07T01:28:35;33.30;;;31.37;;
15929;SDS011;8064;51.142;4.780;2023-05-07T01:31:02;32.97;;;31.07;;
15929;SDS011;8064;51.142;4.780;2023-05-07T01:33:31;33.93;;;31.73;;
15929;SDS011;8064;51.142;4.780;2023-05-07T01:36:00;32.13;;;30.40;;
15929;SDS011;8064;51.142;4.780;2023-05-07T01:38:28;32.00;;;29.83;;
15929;SDS011;8064;51.142;4.780;2023-05-07T01:40:55;32.50;;;30.67;;
15929;SDS011;8064;51.142;4.780;2023-05-07T01:43:21;32.77;;;30.83;;
15929;SDS011;8064;51.142;4.780;2023-05-07T01:45:47;30.37;;;28.53;;
15929;SDS011;8064;51.142;4.780;2023-05-07T01:48:14;33.83;;;31.97;;
15929;SDS011;8064;51.142;4.780;2023-05-07T01:50:41;32.43;;;30.63;;
15929;SDS011;8064;51.142;4.780;2023-05-07T01:53:08;31.17;;;29.43;;
15929;SDS011;8064;51.142;4.780;2023-05-07T01:55:33;31.17;;;29.37;;
15929;SDS011;8064;51.142;4.780;2023-05-07T01:58:01;30.90;;;29.13;;
15929;SDS011;8064;51.142;4.780;2023-05-07T02:00:27;31.73;;;30.03;;
15929;SDS011;8064;51.142;4.780;2023-05-07T02:02:54;31.70;;;29.90;;
15929;SDS011;8064;51.142;4.780;2023-05-07T02:05:20;32.07;;;30.30;;
15929;SDS011;8064;51.142;4.780;2023-05-07T02:07:45;32.43;;;30.47;;
15929;SDS011;8064;51.142;4.780;2023-05-07T02:10:11;32.90;;;31.00;;
15929;SDS011;8064;51.142;4.780;2023-05-07T02:12:37;33.23;;;31.43;;
15929;SDS011;8064;51.142;4.780;2023-05-07T02:15:03;31.60;;;29.70;;
15929;SDS011;8064;51.142;4.780;2023-05-07T02:17:29;32.50;;;30.60;;
15929;SDS011;8064;51.142;4.780;2023-05-07T02:19:57;32.47;;;30.30;;
15929;SDS011;8064;51.142;4.780;2023-05-07T02:22:22;32.60;;;30.57;;
15929;SDS011;8064;51.142;4.780;2023-05-07T02:24:48;33.43;;;31.53;;
15929;SDS011;8064;51.142;4.780;2023-05-07T02:27:14;30.37;;;28.67;;
15929;SDS011;8064;51.142;4.780;2023-05-07T02:29:40;32.70;;;30.80;;
15929;SDS011;8064;51.142;4.780;2023-05-07T02:32:05;32.50;;;30.60;;
15929;SDS011;8064;51.142;4.780;2023-05-07T02:34:31;31.43;;;29.50;;
15929;SDS011;8064;51.142;4.780;2023-05-07T02:36:57;31.43;;;29.50;;
15929;SDS011;8064;51.142;4.780;2023-05-07T02:39:23;32.10;;;30.10;;
15929;SDS011;8064;51.142;4.780;2023-05-07T02:41:49;31.40;;;29.70;;
15929;SDS011;8064;51.142;4.780;2023-05-07T02:44:14;33.07;;;31.17;;
15929;SDS011;8064;51.142;4.780;2023-05-07T02:46:40;32.13;;;30.33;;
15929;SDS011;8064;51.142;4.780;2023-05-07T02:49:06;31.67;;;29.77;;
15929;SDS011;8064;51.142;4.780;2023-05-07T02:51:32;33.17;;;31.33;;
15929;SDS011;8064;51.142;4.780;2023-05-07T02:53:57;31.37;;;29.57;;
15929;SDS011;8064;51.142;4.780;2023-05-07T02:56:25;32.63;;;30.77;;
15929;SDS011;8064;51.142;4.780;2023-05-07T02:58:51;32.03;;;30.13;;
15929;SDS011;8064;51.142;4.780;2023-05-07T03:01:17;34.10;;;32.10;;
15929;SDS011;8064;51.142;4.780;2023-05-07T03:03:43;32.93;;;30.97;;
15929;SDS011;8064;51.142;4.780;2023-05-07T03:06:09;32.57;;;30.67;;
15929;SDS011;8064;51.142;4.780;2023-05-07T03:08:35;35.43;;;33.10;;
15929;SDS011;8064;51.142;4.780;2023-05-07T03:11:01;31.37;;;29.57;;
15929;SDS011;8064;51.142;4.780;2023-05-07T03:13:27;32.10;;;30.23;;
15929;SDS011;8064;51.142;4.780;2023-05-07T03:15:53;33.07;;;31.07;;
15929;SDS011;8064;51.142;4.780;2023-05-07T03:18:19;30.30;;;28.47;;
15929;SDS011;8064;51.142;4.780;2023-05-07T03:20:45;34.83;;;32.80;;
15929;SDS011;8064;51.142;4.780;2023-05-07T03:23:11;32.60;;;30.80;;
15929;SDS011;8064;51.142;4.780;2023-05-07T03:25:36;33.53;;;31.30;;
15929;SDS011;8064;51.142;4.780;2023-05-07T03:28:02;33.60;;;31.53;;
15929;SDS011;8064;51.142;4.780;2023-05-07T03:30:28;32.07;;;30.23;;
15929;SDS011;8064;51.142;4.780;2023-05-07T03:32:54;31.33;;;29.63;;
15929;SDS011;8064;51.142;4.780;2023-05-07T03:35:20;30.63;;;28.93;;
15929;SDS011;8064;51.142;4.780;2023-05-07T03:37:46;30.20;;;28.43;;
15929;SDS011;8064;51.142;4.780;2023-05-07T03:40:11;32.17;;;30.37;;
15929;SDS011;8064;51.142;4.780;2023-05-07T03:42:38;31.30;;;29.50;;
15929;SDS011;8064;51.142;4.780;2023-05-07T03:45:03;34.33;;;32.43;;
15929;SDS011;8064;51.142;4.780;2023-05-07T03:47:30;34.97;;;32.90;;
15929;SDS011;8064;51.142;4.780;2023-05-07T03:49:56;34.90;;;32.80;;
15929;SDS011;8064;51.142;4.780;2023-05-07T03:52:21;31.87;;;29.97;;
15929;SDS011;8064;51.142;4.780;2023-05-07T03:54:51;35.27;;;32.87;;
15929;SDS011;8064;51.142;4.780;2023-05-07T03:57:17;32.87;;;30.97;;
15929;SDS011;8064;51.142;4.780;2023-05-07T03:59:43;33.57;;;31.63;;
15929;SDS011;8064;51.142;4.780;2023-05-07T04:02:09;31.97;;;30.17;;
15929;SDS011;8064;51.142;4.780;2023-05-07T04:04:34;34.43;;;32.37;;
15929;SDS011;8064;51.142;4.780;2023-05-07T04:07:00;34.13;;;32.23;;
15929;SDS011;8064;51.142;4.780;2023-05-07T04:09:26;32.03;;;30.20;;
15929;SDS011;8064;51.142;4.780;2023-05-07T04:11:52;33.40;;;31.30;;
15929;SDS011;8064;51.142;4.780;2023-05-07T04:14:18;34.07;;;32.07;;
15929;SDS011;8064;51.142;4.780;2023-05-07T04:16:43;32.87;;;30.97;;
15929;SDS011;8064;51.142;4.780;2023-05-07T04:19:09;33.87;;;31.97;;
15929;SDS011;8064;51.142;4.780;2023-05-07T04:21:35;33.57;;;31.67;;
15929;SDS011;8064;51.142;4.780;2023-05-07T04:24:02;32.90;;;30.97;;
15929;SDS011;8064;51.142;4.780;2023-05-07T04:26:29;34.07;;;32.07;;
15929;SDS011;8064;51.142;4.780;2023-05-07T04:28:55;34.20;;;32.30;;
15929;SDS011;8064;51.142;4.780;2023-05-07T04:31:21;34.03;;;32.00;;
15929;SDS011;8064;51.142;4.780;2023-05-07T04:33:47;35.03;;;33.00;;
15929;SDS011;8064;51.142;4.780;2023-05-07T04:36:13;34.50;;;32.50;;
15929;SDS011;8064;51.142;4.780;2023-05-07T04:38:39;36.03;;;33.83;;
15929;SDS011;8064;51.142;4.780;2023-05-07T04:41:05;34.10;;;32.17;;
15929;SDS011;8064;51.142;4.780;2023-05-07T04:43:31;32.80;;;30.90;;
15929;SDS011;8064;51.142;4.780;2023-05-07T04:45:57;32.93;;;31.03;;
15929;SDS011;8064;51.142;4.780;2023-05-07T04:48:23;34.43;;;32.30;;
15929;SDS011;8064;51.142;4.780;2023-05-07T04:50:50;35.60;;;33.47;;
15929;SDS011;8064;51.142;4.780;2023-05-07T04:53:16;35.17;;;33.07;;
15929;SDS011;8064;51.142;4.780;2023-05-07T04:55:43;36.30;;;33.93;;
15929;SDS011;8064;51.142;4.780;2023-05-07T04:58:10;34.00;;;32.00;;
15929;SDS011;8064;51.142;4.780;2023-05-07T05:00:37;34.17;;;32.30;;
15929;SDS011;8064;51.142;4.780;2023-05-07T05:03:04;34.30;;;32.30;;
15929;SDS011;8064;51.142;4.780;2023-05-07T05:05:31;32.43;;;30.43;;
15929;SDS011;8064;51.142;4.780;2023-05-07T05:07:56;35.13;;;32.77;;
15929;SDS011;8064;51.142;4.780;2023-05-07T05:10:22;36.37;;;34.17;;
15929;SDS011;8064;51.142;4.780;2023-05-07T05:12:48;33.13;;;31.13;;
15929;SDS011;8064;51.142;4.780;2023-05-07T05:15:13;35.43;;;33.43;;
15929;SDS011;8064;51.142;4.780;2023-05-07T05:17:40;35.17;;;33.07;;
15929;SDS011;8064;51.142;4.780;2023-05-07T05:20:05;42.43;;;39.63;;
15929;SDS011;8064;51.142;4.780;2023-05-07T05:22:32;47.13;;;43.73;;
15929;SDS011;8064;51.142;4.780;2023-05-07T05:24:58;52.90;;;49.13;;
15929;SDS011;8064;51.142;4.780;2023-05-07T05:27:23;47.97;;;44.77;;
15929;SDS011;8064;51.142;4.780;2023-05-07T05:29:49;40.33;;;37.73;;
15929;SDS011;8064;51.142;4.780;2023-05-07T05:32:15;39.77;;;37.23;;
15929;SDS011;8064;51.142;4.780;2023-05-07T05:34:41;35.40;;;33.13;;
15929;SDS011;8064;51.142;4.780;2023-05-07T05:37:06;36.77;;;34.50;;
15929;SDS011;8064;51.142;4.780;2023-05-07T05:39:32;37.17;;;34.97;;
15929;SDS011;8064;51.142;4.780;2023-05-07T05:41:58;40.50;;;38.00;;
15929;SDS011;8064;51.142;4.780;2023-05-07T05:44:24;49.67;;;46.20;;
15929;SDS011;8064;51.142;4.780;2023-05-07T05:46:50;36.27;;;33.87;;
15929;SDS011;8064;51.142;4.780;2023-05-07T05:49:16;35.23;;;33.07;;
15929;SDS011;8064;51.142;4.780;2023-05-07T05:51:42;34.13;;;31.87;;
15929;SDS011;8064;51.142;4.780;2023-05-07T05:54:08;37.53;;;35.03;;
15929;SDS011;8064;51.142;4.780;2023-05-07T05:56:34;33.67;;;31.53;;
15929;SDS011;8064;51.142;4.780;2023-05-07T05:59:02;34.83;;;32.60;;
15929;SDS011;8064;51.142;4.780;2023-05-07T06:01:28;36.27;;;34.07;;
15929;SDS011;8064;51.142;4.780;2023-05-07T06:03:53;34.33;;;32.33;;
15929;SDS011;8064;51.142;4.780;2023-05-07T06:06:19;32.30;;;30.30;;
15929;SDS011;8064;51.142;4.780;2023-05-07T06:08:45;33.30;;;31.27;;
15929;SDS011;8064;51.142;4.780;2023-05-07T06:11:11;34.57;;;32.47;;
15929;SDS011;8064;51.142;4.780;2023-05-07T06:13:37;37.47;;;35.27;;
15929;SDS011;8064;51.142;4.780;2023-05-07T06:16:02;33.10;;;31.07;;
15929;SDS011;8064;51.142;4.780;2023-05-07T06:18:28;34.70;;;32.60;;
15929;SDS011;8064;51.142;4.780;2023-05-07T06:20:54;33.93;;;31.60;;
15929;SDS011;8064;51.142;4.780;2023-05-07T06:23:20;36.53;;;34.27;;
15929;SDS011;8064;51.142;4.780;2023-05-07T06:25:48;33.57;;;31.47;;
15929;SDS011;8064;51.142;4.780;2023-05-07T06:28:15;35.70;;;33.43;;
15929;SDS011;8064;51.142;4.780;2023-05-07T06:30:41;35.37;;;32.97;;
15929;SDS011;8064;51.142;4.780;2023-05-07T06:33:07;34.57;;;32.37;;
15929;SDS011;8064;51.142;4.780;2023-05-07T06:35:33;35.83;;;33.53;;
15929;SDS011;8064;51.142;4.780;2023-05-07T06:37:59;35.00;;;32.80;;
15929;SDS011;8064;51.142;4.780;2023-05-07T06:40:25;37.10;;;34.63;;
15929;SDS011;8064;51.142;4.780;2023-05-07T06:42:52;33.67;;;31.57;;
15929;SDS011;8064;51.142;4.780;2023-05-07T06:45:18;33.50;;;31.40;;
15929;SDS011;8064;51.142;4.780;2023-05-07T06:47:45;34.30;;;32.10;;
15929;SDS011;8064;51.142;4.780;2023-05-07T06:50:11;32.83;;;30.80;;
15929;SDS011;8064;51.142;4.780;2023-05-07T06:52:36;32.47;;;30.50;;
15929;SDS011;8064;51.142;4.780;2023-05-07T06:55:02;31.73;;;29.73;;
15929;SDS011;8064;51.142;4.780;2023-05-07T06:57:29;34.90;;;32.70;;
15929;SDS011;8064;51.142;4.780;2023-05-07T06:59:54;34.17;;;31.97;;
15929;SDS011;8064;51.142;4.780;2023-05-07T07:02:21;34.17;;;32.10;;
15929;SDS011;8064;51.142;4.780;2023-05-07T07:04:46;34.87;;;32.67;;
15929;SDS011;8064;51.142;4.780;2023-05-07T07:07:12;35.13;;;32.83;;
15929;SDS011;8064;51.142;4.780;2023-05-07T07:09:38;34.73;;;32.63;;
15929;SDS011;8064;51.142;4.780;2023-05-07T07:12:04;31.60;;;29.63;;
15929;SDS011;8064;51.142;4.780;2023-05-07T07:14:29;35.13;;;32.83;;
15929;SDS011;8064;51.142;4.780;2023-05-07T07:16:55;32.60;;;30.67;;
15929;SDS011;8064;51.142;4.780;2023-05-07T07:19:21;36.23;;;33.70;;
15929;SDS011;8064;51.142;4.780;2023-05-07T07:21:47;34.90;;;32.70;;
15929;SDS011;8064;51.142;4.780;2023-05-07T07:24:14;33.83;;;31.77;;
15929;SDS011;8064;51.142;4.780;2023-05-07T07:26:49;35.23;;;32.80;;
15929;SDS011;8064;51.142;4.780;2023-05-07T07:29:34;34.00;;;31.70;;
15929;SDS011;8064;51.142;4.780;2023-05-07T07:32:04;36.07;;;33.63;;
15929;SDS011;8064;51.142;4.780;2023-05-07T07:34:32;34.00;;;31.90;;
15929;SDS011;8064;51.142;4.780;2023-05-07T07:36:58;34.80;;;32.53;;
15929;SDS011;8064;51.142;4.780;2023-05-07T07:39:30;38.60;;;36.00;;
15929;SDS011;8064;51.142;4.780;2023-05-07T07:41:56;37.10;;;34.40;;
15929;SDS011;8064;51.142;4.780;2023-05-07T07:44:22;36.43;;;34.17;;
15929;SDS011;8064;51.142;4.780;2023-05-07T07:46:48;37.70;;;35.47;;
15929;SDS011;8064;51.142;4.780;2023-05-07T07:49:14;36.77;;;34.37;;
15929;SDS011;8064;51.142;4.780;2023-05-07T07:51:40;36.33;;;34.03;;
15929;SDS011;8064;51.142;4.780;2023-05-07T07:54:05;34.63;;;32.40;;
15929;SDS011;8064;51.142;4.780;2023-05-07T07:56:32;36.00;;;33.67;;
15929;SDS011;8064;51.142;4.780;2023-05-07T07:58:59;33.37;;;31.27;;
15929;SDS011;8064;51.142;4.780;2023-05-07T08:01:25;34.00;;;31.80;;
15929;SDS011;8064;51.142;4.780;2023-05-07T08:03:51;32.00;;;29.97;;
15929;SDS011;8064;51.142;4.780;2023-05-07T08:06:17;31.97;;;29.70;;
15929;SDS011;8064;51.142;4.780;2023-05-07T08:08:43;33.53;;;31.23;;
15929;SDS011;8064;51.142;4.780;2023-05-07T08:11:09;31.70;;;29.47;;
15929;SDS011;8064;51.142;4.780;2023-05-07T08:13:36;32.30;;;30.20;;
15929;SDS011;8064;51.142;4.780;2023-05-07T08:16:03;32.30;;;30.10;;
15929;SDS011;8064;51.142;4.780;2023-05-07T08:18:29;30.57;;;28.60;;
15929;SDS011;8064;51.142;4.780;2023-05-07T08:20:55;33.97;;;31.67;;
15929;SDS011;8064;51.142;4.780;2023-05-07T08:23:21;33.93;;;31.83;;
15929;SDS011;8064;51.142;4.780;2023-05-07T08:25:48;32.73;;;30.43;;
15929;SDS011;8064;51.142;4.780;2023-05-07T08:28:14;34.60;;;32.23;;
15929;SDS011;8064;51.142;4.780;2023-05-07T08:30:40;31.60;;;29.63;;
15929;SDS011;8064;51.142;4.780;2023-05-07T08:33:06;33.13;;;31.13;;
15929;SDS011;8064;51.142;4.780;2023-05-07T08:35:33;31.83;;;29.87;;
15929;SDS011;8064;51.142;4.780;2023-05-07T08:37:59;32.30;;;29.93;;
15929;SDS011;8064;51.142;4.780;2023-05-07T08:40:25;35.33;;;33.03;;
15929;SDS011;8064;51.142;4.780;2023-05-07T08:42:52;35.00;;;32.63;;
15929;SDS011;8064;51.142;4.780;2023-05-07T08:45:19;33.10;;;30.90;;
15929;SDS011;8064;51.142;4.780;2023-05-07T08:47:47;34.13;;;31.97;;
15929;SDS011;8064;51.142;4.780;2023-05-07T08:50:20;35.73;;;33.40;;
15929;SDS011;8064;51.142;4.780;2023-05-07T08:52:47;33.47;;;31.13;;
15929;SDS011;8064;51.142;4.780;2023-05-07T08:55:13;35.57;;;33.23;;
15929;SDS011;8064;51.142;4.780;2023-05-07T08:57:40;33.40;;;31.20;;
15929;SDS011;8064;51.142;4.780;2023-05-07T09:00:06;35.13;;;32.63;;
15929;SDS011;8064;51.142;4.780;2023-05-07T09:02:32;34.40;;;32.20;;
15929;SDS011;8064;51.142;4.780;2023-05-07T09:05:00;34.93;;;32.47;;
15929;SDS011;8064;51.142;4.780;2023-05-07T09:07:26;33.07;;;30.60;;
15929;SDS011;8064;51.142;4.780;2023-05-07T09:09:52;32.07;;;29.87;;
15929;SDS011;8064;51.142;4.780;2023-05-07T09:12:20;31.43;;;29.13;;
15929;SDS011;8064;51.142;4.780;2023-05-07T09:14:46;31.70;;;29.37;;
15929;SDS011;8064;51.142;4.780;2023-05-07T09:17:12;34.10;;;31.77;;
15929;SDS011;8064;51.142;4.780;2023-05-07T09:19:40;32.73;;;30.43;;
15929;SDS011;8064;51.142;4.780;2023-05-07T09:22:06;33.10;;;30.70;;
15929;SDS011;8064;51.142;4.780;2023-05-07T09:24:33;35.93;;;33.33;;
15929;SDS011;8064;51.142;4.780;2023-05-07T09:27:01;34.40;;;32.13;;
15929;SDS011;8064;51.142;4.780;2023-05-07T09:29:27;33.93;;;31.43;;
15929;SDS011;8064;51.142;4.780;2023-05-07T09:31:55;33.67;;;31.13;;
15929;SDS011;8064;51.142;4.780;2023-05-07T09:34:21;33.07;;;30.57;;
15929;SDS011;8064;51.142;4.780;2023-05-07T09:36:47;35.03;;;32.63;;
15929;SDS011;8064;51.142;4.780;2023-05-07T09:39:13;35.80;;;33.30;;
15929;SDS011;8064;51.142;4.780;2023-05-07T09:44:20;33.83;;;31.10;;
15929;SDS011;8064;51.142;4.780;2023-05-07T09:46:47;34.10;;;31.60;;
15929;SDS011;8064;51.142;4.780;2023-05-07T09:49:22;35.97;;;33.30;;
15929;SDS011;8064;51.142;4.780;2023-05-07T09:51:50;33.27;;;30.97;;
15929;SDS011;8064;51.142;4.780;2023-05-07T09:54:17;33.53;;;31.23;;
15929;SDS011;8064;51.142;4.780;2023-05-07T09:56:44;34.40;;;31.97;;
15929;SDS011;8064;51.142;4.780;2023-05-07T09:59:13;35.93;;;33.33;;
15929;SDS011;8064;51.142;4.780;2023-05-07T10:01:41;33.87;;;31.30;;
15929;SDS011;8064;51.142;4.780;2023-05-07T10:04:08;35.63;;;33.23;;
15929;SDS011;8064;51.142;4.780;2023-05-07T10:06:35;35.77;;;33.27;;
15929;SDS011;8064;51.142;4.780;2023-05-07T10:09:02;34.83;;;32.17;;
15929;SDS011;8064;51.142;4.780;2023-05-07T10:11:34;36.13;;;33.53;;
15929;SDS011;8064;51.142;4.780;2023-05-07T10:14:01;36.10;;;33.70;;
15929;SDS011;8064;51.142;4.780;2023-05-07T10:16:38;35.70;;;32.80;;
15929;SDS011;8064;51.142;4.780;2023-05-07T10:19:04;36.67;;;33.97;;
15929;SDS011;8064;51.142;4.780;2023-05-07T10:21:33;38.90;;;36.13;;
15929;SDS011;8064;51.142;4.780;2023-05-07T10:24:03;34.53;;;32.20;;
15929;SDS011;8064;51.142;4.780;2023-05-07T10:26:32;37.30;;;34.70;;
15929;SDS011;8064;51.142;4.780;2023-05-07T10:29:02;37.47;;;34.83;;
15929;SDS011;8064;51.142;4.780;2023-05-07T10:34:28;37.30;;;34.60;;
15929;SDS011;8064;51.142;4.780;2023-05-07T10:37:00;35.53;;;33.00;;
15929;SDS011;8064;51.142;4.780;2023-05-07T10:39:27;35.50;;;32.97;;
15929;SDS011;8064;51.142;4.780;2023-05-07T10:41:52;35.87;;;33.43;;
15929;SDS011;8064;51.142;4.780;2023-05-07T10:47:04;35.40;;;32.70;;
15929;SDS011;8064;51.142;4.780;2023-05-07T10:49:31;35.13;;;32.63;;
15929;SDS011;8064;51.142;4.780;2023-05-07T10:54:42;33.27;;;30.93;;
15929;SDS011;8064;51.142;4.780;2023-05-07T11:00:38;33.90;;;31.33;;
15929;SDS011;8064;51.142;4.780;2023-05-07T11:05:28;35.07;;;32.33;;
15929;SDS011;8064;51.142;4.780;2023-05-07T11:07:55;32.83;;;30.43;;
15929;SDS011;8064;51.142;4.780;2023-05-07T11:10:22;33.40;;;31.00;;
15929;SDS011;8064;51.142;4.780;2023-05-07T11:12:49;30.60;;;28.20;;
15929;SDS011;8064;51.142;4.780;2023-05-07T11:15:33;28.37;;;26.37;;
15929;SDS011;8064;51.142;4.780;2023-05-07T11:18:01;31.23;;;29.07;;
15929;SDS011;8064;51.142;4.780;2023-05-07T11:26:00;29.30;;;27.13;;
15929;SDS011;8064;51.142;4.780;2023-05-07T11:28:28;29.60;;;27.60;;
15929;SDS011;8064;51.142;4.780;2023-05-07T11:30:56;27.47;;;25.37;;
15929;SDS011;8064;51.142;4.780;2023-05-07T11:33:22;29.27;;;26.90;;
15929;SDS011;8064;51.142;4.780;2023-05-07T11:35:50;27.00;;;25.20;;
15929;SDS011;8064;51.142;4.780;2023-05-07T11:38:18;28.57;;;26.87;;
15929;SDS011;8064;51.142;4.780;2023-05-07T11:43:30;27.70;;;25.63;;
15929;SDS011;8064;51.142;4.780;2023-05-07T11:48:42;26.87;;;24.93;;
15929;SDS011;8064;51.142;4.780;2023-05-07T11:51:08;29.90;;;27.60;;
15929;SDS011;8064;51.142;4.780;2023-05-07T11:53:37;28.00;;;26.10;;
15929;SDS011;8064;51.142;4.780;2023-05-07T11:56:07;28.37;;;26.30;;
15929;SDS011;8064;51.142;4.780;2023-05-07T11:58:33;25.60;;;23.60;;
15929;SDS011;8064;51.142;4.780;2023-05-07T12:00:59;26.67;;;24.83;;
15929;SDS011;8064;51.142;4.780;2023-05-07T12:03:25;26.50;;;24.53;;
15929;SDS011;8064;51.142;4.780;2023-05-07T12:05:51;24.40;;;22.73;;
15929;SDS011;8064;51.142;4.780;2023-05-07T12:08:18;26.10;;;24.37;;
15929;SDS011;8064;51.142;4.780;2023-05-07T12:10:45;26.07;;;24.30;;
15929;SDS011;8064;51.142;4.780;2023-05-07T12:13:24;28.03;;;26.13;;
15929;SDS011;8064;51.142;4.780;2023-05-07T12:15:51;28.13;;;26.10;;
15929;SDS011;8064;51.142;4.780;2023-05-07T12:18:18;27.23;;;25.47;;
15929;SDS011;8064;51.142;4.780;2023-05-07T12:20:45;26.83;;;25.13;;
15929;SDS011;8064;51.142;4.780;2023-05-07T12:23:11;29.10;;;26.93;;
15929;SDS011;8064;51.142;4.780;2023-05-07T12:25:38;26.03;;;24.40;;
15929;SDS011;8064;51.142;4.780;2023-05-07T12:28:06;23.93;;;22.43;;
15929;SDS011;8064;51.142;4.780;2023-05-07T12:33:18;25.13;;;23.33;;
15929;SDS011;8064;51.142;4.780;2023-05-07T12:35:48;25.13;;;23.20;;
15929;SDS011;8064;51.142;4.780;2023-05-07T12:38:15;23.03;;;21.47;;
15929;SDS011;8064;51.142;4.780;2023-05-07T12:40:43;26.07;;;24.37;;
15929;SDS011;8064;51.142;4.780;2023-05-07T12:43:21;24.87;;;23.00;;
15929;SDS011;8064;51.142;4.780;2023-05-07T12:45:50;24.60;;;22.90;;
15929;SDS011;8064;51.142;4.780;2023-05-07T12:48:16;25.80;;;24.10;;
15929;SDS011;8064;51.142;4.780;2023-05-07T12:50:44;24.43;;;22.83;;
15929;SDS011;8064;51.142;4.780;2023-05-07T12:53:10;25.50;;;23.70;;
15929;SDS011;8064;51.142;4.780;2023-05-07T13:01:07;23.37;;;21.67;;
15929;SDS011;8064;51.142;4.780;2023-05-07T13:03:35;23.70;;;21.87;;
15929;SDS011;8064;51.142;4.780;2023-05-07T13:06:03;23.50;;;22.00;;
15929;SDS011;8064;51.142;4.780;2023-05-07T13:08:43;22.53;;;21.03;;
15929;SDS011;8064;51.142;4.780;2023-05-07T13:11:09;23.30;;;21.77;;
15929;SDS011;8064;51.142;4.780;2023-05-07T13:13:36;22.00;;;20.60;;
15929;SDS011;8064;51.142;4.780;2023-05-07T13:16:04;22.30;;;20.73;;
15929;SDS011;8064;51.142;4.780;2023-05-07T13:18:31;20.43;;;19.00;;
15929;SDS011;8064;51.142;4.780;2023-05-07T13:20:57;22.57;;;21.07;;
15929;SDS011;8064;51.142;4.780;2023-05-07T13:23:24;22.37;;;20.87;;
15929;SDS011;8064;51.142;4.780;2023-05-07T13:25:50;22.57;;;20.93;;
15929;SDS011;8064;51.142;4.780;2023-05-07T13:28:17;24.37;;;22.67;;
15929;SDS011;8064;51.142;4.780;2023-05-07T13:30:44;19.53;;;18.23;;
15929;SDS011;8064;51.142;4.780;2023-05-07T13:33:09;24.07;;;22.43;;
15929;SDS011;8064;51.142;4.780;2023-05-07T13:35:35;23.43;;;21.80;;
15929;SDS011;8064;51.142;4.780;2023-05-07T13:38:01;20.67;;;19.17;;
15929;SDS011;8064;51.142;4.780;2023-05-07T13:40:27;22.17;;;20.50;;
15929;SDS011;8064;51.142;4.780;2023-05-07T13:42:53;20.83;;;19.53;;
15929;SDS011;8064;51.142;4.780;2023-05-07T13:45:19;22.23;;;20.60;;
15929;SDS011;8064;51.142;4.780;2023-05-07T13:47:45;20.43;;;19.13;;
15929;SDS011;8064;51.142;4.780;2023-05-07T13:50:11;22.67;;;21.15;;
15929;SDS011;8064;51.142;4.780;2023-05-07T13:52:40;20.92;;;19.65;;
15929;SDS011;8064;51.142;4.780;2023-05-07T13:55:08;23.45;;;22.02;;
15929;SDS011;8064;51.142;4.780;2023-05-07T13:57:35;22.10;;;20.70;;
15929;SDS011;8064;51.142;4.780;2023-05-07T14:00:02;22.87;;;21.47;;
15929;SDS011;8064;51.142;4.780;2023-05-07T14:02:30;25.17;;;23.30;;
15929;SDS011;8064;51.142;4.780;2023-05-07T14:04:56;25.63;;;23.87;;
15929;SDS011;8064;51.142;4.780;2023-05-07T14:07:22;22.77;;;21.23;;
15929;SDS011;8064;51.142;4.780;2023-05-07T14:09:48;25.33;;;23.53;;
15929;SDS011;8064;51.142;4.780;2023-05-07T14:12:13;21.90;;;20.30;;
15929;SDS011;8064;51.142;4.780;2023-05-07T14:14:39;23.43;;;21.97;;
15929;SDS011;8064;51.142;4.780;2023-05-07T14:17:05;24.23;;;22.65;;
15929;SDS011;8064;51.142;4.780;2023-05-07T14:19:31;24.07;;;22.20;;
15929;SDS011;8064;51.142;4.780;2023-05-07T14:21:57;25.23;;;23.35;;
15929;SDS011;8064;51.142;4.780;2023-05-07T14:24:23;21.60;;;20.07;;
15929;SDS011;8064;51.142;4.780;2023-05-07T14:26:49;23.80;;;22.05;;
15929;SDS011;8064;51.142;4.780;2023-05-07T14:29:15;24.88;;;23.00;;
15929;SDS011;8064;51.142;4.780;2023-05-07T14:31:45;24.77;;;23.08;;
15929;SDS011;8064;51.142;4.780;2023-05-07T14:34:11;20.98;;;19.58;;
15929;SDS011;8064;51.142;4.780;2023-05-07T14:36:36;23.95;;;22.35;;
15929;SDS011;8064;51.142;4.780;2023-05-07T14:39:03;25.33;;;23.40;;
15929;SDS011;8064;51.142;4.780;2023-05-07T14:41:29;23.33;;;21.77;;
15929;SDS011;8064;51.142;4.780;2023-05-07T14:43:56;25.42;;;23.55;;
15929;SDS011;8064;51.142;4.780;2023-05-07T14:46:23;23.35;;;21.70;;
15929;SDS011;8064;51.142;4.780;2023-05-07T14:48:49;23.08;;;21.55;;
15929;SDS011;8064;51.142;4.780;2023-05-07T14:51:15;22.97;;;21.43;;
15929;SDS011;8064;51.142;4.780;2023-05-07T14:53:41;26.25;;;24.55;;
15929;SDS011;8064;51.142;4.780;2023-05-07T14:56:07;24.73;;;23.17;;
15929;SDS011;8064;51.142;4.780;2023-05-07T14:58:33;25.43;;;23.83;;
15929;SDS011;8064;51.142;4.780;2023-05-07T15:00:59;25.60;;;23.90;;
15929;SDS011;8064;51.142;4.780;2023-05-07T15:03:25;25.27;;;23.47;;
15929;SDS011;8064;51.142;4.780;2023-05-07T15:05:52;25.08;;;23.52;;